Marthasville, Missouri
Current Conditions -  °F | °C
As of 9:15 PM on Friday 21 Nov 2014 (Local Time) from KFYG Reporting Station
Light Rain Light Rain  
Wind Chill: 33°   Ceiling: 1900
Heat Index: 41°   Visibility: 10mi
Dew Point: 36°   Wind: 14mph
Humidity: 81%   Direction: 150°SSE
Pressure: 30.21"   Gusts: NA
Location:  38.63°N, 91.06°W
Report Text: KFYG 220315Z AUTO 15012KT 10SM -RA OVC019 05/02 A3021 RMK AO2
Loading
Personal Weather Stations






























Interactive Weather Map New forecast layout! Learn more

10-Day Weather Forecast

Advertisements
Track Severe Weather on mobile